createdAt,value
2023-03-16T00:02:24.639Z,40.83
2023-03-16T00:07:26.810Z,40.75
2023-03-16T00:12:28.640Z,40.54
2023-03-16T00:17:30.653Z,40.73
2023-03-16T00:22:32.870Z,40.77
2023-03-16T00:27:35.162Z,40.88
2023-03-16T00:32:38.353Z,40.58
2023-03-16T00:37:40.317Z,40.76
2023-03-16T00:42:42.512Z,40.93
2023-03-16T00:47:44.383Z,40.78
2023-03-16T00:52:46.315Z,41.06
2023-03-16T00:57:48.435Z,40.90
2023-03-16T01:02:50.471Z,40.76
2023-03-16T01:07:52.603Z,40.79
2023-03-16T01:12:56.338Z,41.12
2023-03-16T01:17:58.442Z,40.95
2023-03-16T01:23:00.513Z,40.85
2023-03-16T01:28:02.554Z,40.88
2023-03-16T01:33:04.591Z,40.87
2023-03-16T01:38:06.633Z,41.02
2023-03-16T01:43:11.506Z,41.00
2023-03-16T01:48:14.626Z,41.01
2023-03-16T01:53:16.787Z,41.18
2023-03-16T01:58:18.648Z,40.99
2023-03-16T02:03:21.942Z,41.02
2023-03-16T02:08:24.943Z,41.07
2023-03-16T02:13:29.773Z,41.00
2023-03-16T02:18:32.161Z,41.03
2023-03-16T02:23:35.257Z,41.40
2023-03-16T02:29:11.755Z,41.15
2023-03-16T02:34:17.401Z,41.34
2023-03-16T02:39:19.606Z,41.27
2023-03-16T02:44:27.941Z,41.42
2023-03-16T02:49:42.521Z,41.40
2023-03-16T02:54:44.577Z,41.42
2023-03-16T02:59:46.631Z,41.45
2023-03-16T03:04:48.709Z,41.24
2023-03-16T03:09:53.889Z,41.44
2023-03-16T03:14:57.572Z,41.17
2023-03-16T03:20:00.840Z,41.22
2023-03-16T03:25:03.155Z,41.48
2023-03-16T03:30:06.077Z,41.48
2023-03-16T03:35:09.160Z,41.25
2023-03-16T03:40:13.584Z,41.35
2023-03-16T03:45:15.985Z,41.48
2023-03-16T03:50:18.077Z,41.45
2023-03-16T03:55:20.221Z,41.60
2023-03-16T04:00:22.221Z,41.35
2023-03-16T04:05:27.674Z,41.58
2023-03-16T04:10:31.300Z,41.35
2023-03-16T04:15:33.471Z,41.36
2023-03-16T04:20:35.481Z,41.52
2023-03-16T04:25:38.951Z,41.51
2023-03-16T04:30:43.313Z,41.61
2023-03-16T04:35:46.365Z,41.49
2023-03-16T04:40:48.380Z,41.66
2023-03-16T04:45:50.897Z,41.52
2023-03-16T04:50:52.863Z,41.39
2023-03-16T04:55:54.681Z,41.65
2023-03-16T05:00:56.716Z,41.59
2023-03-16T05:05:58.760Z,41.43
2023-03-16T05:11:00.832Z,41.29
2023-03-16T05:16:02.716Z,41.35
2023-03-16T05:21:04.809Z,41.57
2023-03-16T05:26:07.959Z,41.62
2023-03-16T05:31:10.452Z,41.47
2023-03-16T05:36:13.503Z,41.70
2023-03-16T05:41:15.464Z,41.46
2023-03-16T05:46:18.973Z,41.76
2023-03-16T05:51:22.788Z,41.56
2023-03-16T05:56:26.001Z,41.71
2023-03-16T06:01:27.866Z,41.53
2023-03-16T06:06:29.891Z,41.49
2023-03-16T06:11:33.194Z,41.82
2023-03-16T06:16:35.226Z,41.76
2023-03-16T06:21:37.353Z,41.57
2023-03-16T06:26:39.408Z,41.59
2023-03-16T06:31:41.280Z,41.56
2023-03-16T06:36:43.253Z,41.74
2023-03-16T06:41:45.142Z,41.62
2023-03-16T06:46:47.210Z,41.78
2023-03-16T06:51:49.096Z,41.40
2023-03-16T06:56:51.325Z,41.51
2023-03-16T07:01:53.113Z,41.83
2023-03-16T07:06:54.873Z,41.51
2023-03-16T07:11:56.538Z,41.82
2023-03-16T07:16:58.474Z,41.89
2023-03-16T07:22:00.326Z,41.32
2023-03-16T07:27:02.376Z,42.23
2023-03-16T07:32:04.657Z,41.98
2023-03-16T07:37:08.521Z,42.05
2023-03-16T07:42:10.386Z,41.92
2023-03-16T07:47:15.360Z,41.50
2023-03-16T07:52:17.361Z,41.15
2023-03-16T07:57:22.741Z,41.18
2023-03-16T08:02:24.835Z,41.06
2023-03-16T08:07:26.649Z,40.80
2023-03-16T08:12:28.720Z,39.86
2023-03-16T08:17:30.635Z,40.33
2023-03-16T08:22:32.950Z,40.77
2023-03-16T08:27:34.979Z,40.51
2023-03-16T08:32:37.772Z,40.40
2023-03-16T08:37:40.246Z,40.67
2023-03-16T08:42:43.339Z,40.52
2023-03-16T08:47:45.314Z,40.48
2023-03-16T08:52:49.271Z,39.95
2023-03-16T08:57:51.355Z,40.24
2023-03-16T09:02:53.463Z,40.14
2023-03-16T09:07:55.935Z,39.96
2023-03-16T09:12:57.883Z,39.98
2023-03-16T09:18:00.892Z,40.30
2023-03-16T09:23:03.844Z,40.34
2023-03-16T09:28:06.287Z,39.95
2023-03-16T09:33:08.812Z,40.17
2023-03-16T09:38:11.977Z,39.83
2023-03-16T09:43:35.364Z,40.08
2023-03-16T09:48:40.110Z,39.98
2023-03-16T09:53:42.400Z,39.94
2023-03-16T09:58:44.230Z,40.04
2023-03-16T10:04:33.780Z,40.15
2023-03-16T10:10:07.487Z,40.05
2023-03-16T10:15:17.025Z,39.94
2023-03-16T10:20:22.755Z,39.96
2023-03-16T10:25:46.766Z,39.89
2023-03-16T10:30:50.737Z,39.91
2023-03-16T10:35:56.828Z,39.68
2023-03-16T10:41:00.969Z,39.96
2023-03-16T10:46:03.172Z,40.00
2023-03-16T10:51:12.524Z,39.97
2023-03-16T10:56:25.506Z,39.92
2023-03-16T11:01:29.645Z,39.82
2023-03-16T11:06:33.853Z,40.13
2023-03-16T11:11:36.632Z,39.86
2023-03-16T11:16:48.215Z,40.26
2023-03-16T11:22:23.585Z,40.06
2023-03-16T11:27:33.345Z,39.89
2023-03-16T11:32:41.311Z,39.79
2023-03-16T11:37:46.551Z,39.88
2023-03-16T11:43:21.158Z,40.05
2023-03-16T11:48:37.001Z,40.35
2023-03-16T11:53:48.706Z,39.99
2023-03-16T11:58:50.985Z,40.36
2023-03-16T12:04:02.394Z,40.17
2023-03-16T12:09:39.660Z,40.33
2023-03-16T12:14:47.513Z,40.42
2023-03-16T12:20:21.569Z,40.29
2023-03-16T12:25:30.324Z,40.41
2023-03-16T12:30:50.811Z,40.26
2023-03-16T12:36:04.290Z,40.44
2023-03-16T12:41:24.970Z,40.43
2023-03-16T12:46:31.098Z,40.14
2023-03-16T12:51:38.346Z,40.19
2023-03-16T12:56:48.500Z,40.33
2023-03-16T13:01:58.407Z,40.46
2023-03-16T13:07:08.178Z,40.52
2023-03-16T13:12:21.680Z,40.30
2023-03-16T13:17:25.053Z,40.28
2023-03-16T13:22:29.793Z,40.34
2023-03-16T13:27:34.764Z,40.23
2023-03-16T13:32:37.013Z,40.22
2023-03-16T13:37:42.103Z,40.13
2023-03-16T13:42:49.814Z,40.55
2023-03-16T13:47:52.032Z,40.37
2023-03-16T13:53:01.266Z,40.48
2023-03-16T13:58:05.698Z,40.50
2023-03-16T14:03:20.301Z,40.46
2023-03-16T14:08:24.282Z,40.49
2023-03-16T14:13:29.530Z,40.46
2023-03-16T14:18:36.939Z,40.29
2023-03-16T14:23:45.567Z,40.46
2023-03-16T14:29:06.779Z,40.58
2023-03-16T14:34:30.734Z,40.62
2023-03-16T14:39:33.456Z,40.59
2023-03-16T14:44:37.179Z,40.46
2023-03-16T14:49:42.758Z,40.74
2023-03-16T14:54:45.209Z,40.33
2023-03-16T14:59:47.493Z,40.60
2023-03-16T15:04:50.284Z,40.33
2023-03-16T15:09:54.184Z,40.32
2023-03-16T15:15:14.708Z,40.39
2023-03-16T15:20:40.122Z,40.31
2023-03-16T15:25:44.853Z,40.39
2023-03-16T15:30:52.314Z,40.44
2023-03-16T15:35:57.125Z,40.66
2023-03-16T15:41:00.166Z,40.46
2023-03-16T15:46:02.267Z,40.33
2023-03-16T15:51:23.146Z,40.51
2023-03-16T15:56:30.324Z,40.50
2023-03-16T16:01:45.210Z,40.67
2023-03-16T16:06:48.155Z,40.78
2023-03-16T16:11:50.695Z,40.63
2023-03-16T16:16:54.681Z,40.79
2023-03-16T16:21:56.700Z,40.81
2023-03-16T16:26:58.580Z,40.45
2023-03-16T16:32:00.966Z,40.50
2023-03-16T16:37:02.818Z,40.84
2023-03-16T16:42:05.219Z,40.67
2023-03-16T16:47:20.340Z,40.74
2023-03-16T16:52:22.946Z,45.21
2023-03-16T16:57:25.359Z,43.35
2023-03-16T17:02:33.259Z,44.10
2023-03-16T17:07:35.572Z,44.77
2023-03-16T17:12:37.733Z,43.71
2023-03-16T17:17:40.708Z,43.39
2023-03-16T17:22:42.553Z,42.45
2023-03-16T17:27:47.532Z,42.33
2023-03-16T17:32:53.736Z,42.16
2023-03-16T17:37:56.224Z,41.51
2023-03-16T17:42:58.134Z,41.63
2023-03-16T17:48:00.161Z,41.62
2023-03-16T17:53:04.011Z,41.09
2023-03-16T17:58:06.316Z,40.96
2023-03-16T18:03:17.856Z,40.69
2023-03-16T18:08:29.759Z,41.08
2023-03-16T18:13:37.232Z,40.77
2023-03-16T18:18:42.901Z,40.70
2023-03-16T18:23:45.000Z,40.77
2023-03-16T18:28:46.952Z,40.84
2023-03-16T18:33:51.504Z,40.55
2023-03-16T18:38:54.343Z,40.54
2023-03-16T18:44:02.390Z,40.43
2023-03-16T18:49:35.885Z,40.61
2023-03-16T18:54:39.275Z,40.28
2023-03-16T18:59:41.651Z,40.29
2023-03-16T19:04:44.425Z,40.30
2023-03-16T19:09:46.465Z,42.21
2023-03-16T19:14:48.625Z,41.51
2023-03-16T19:19:50.485Z,41.20
2023-03-16T19:24:56.398Z,41.33
2023-03-16T19:29:58.909Z,41.40
2023-03-16T19:35:01.369Z,41.40
2023-03-16T19:40:05.632Z,41.32
2023-03-16T19:45:16.000Z,41.12
2023-03-16T19:50:24.343Z,41.30
2023-03-16T19:55:31.914Z,41.06
2023-03-16T20:00:35.207Z,41.11
2023-03-16T20:05:39.119Z,40.93
2023-03-16T20:10:41.025Z,40.94
2023-03-16T20:15:43.051Z,41.04
2023-03-16T20:20:46.453Z,41.14
2023-03-16T20:25:49.749Z,40.98
2023-03-16T20:30:52.209Z,41.09
2023-03-16T20:35:54.292Z,40.90
2023-03-16T20:40:57.113Z,41.05
2023-03-16T20:46:01.773Z,41.06
2023-03-16T20:51:04.223Z,40.77
2023-03-16T20:56:06.976Z,40.93
2023-03-16T21:01:17.813Z,40.95
2023-03-16T21:06:30.909Z,40.85
2023-03-16T21:11:38.745Z,40.75
2023-03-16T21:16:40.710Z,40.63
2023-03-16T21:21:43.178Z,40.73
2023-03-16T21:26:45.692Z,40.65
2023-03-16T21:31:48.754Z,41.74
2023-03-16T21:36:50.683Z,43.32
2023-03-16T21:41:53.920Z,44.09
2023-03-16T21:46:56.018Z,44.40
2023-03-16T21:51:57.861Z,44.32
2023-03-16T21:56:59.813Z,44.69
2023-03-16T22:02:02.579Z,43.28
2023-03-16T22:07:11.078Z,42.45
2023-03-16T22:12:13.705Z,42.57
2023-03-16T22:17:22.577Z,42.63
2023-03-16T22:22:24.416Z,42.38
2023-03-16T22:27:26.711Z,41.94
2023-03-16T22:32:29.102Z,42.09
2023-03-16T22:37:31.183Z,42.05
2023-03-16T22:42:40.317Z,42.09
2023-03-16T22:47:42.311Z,41.77
2023-03-16T22:52:47.904Z,41.69
2023-03-16T22:57:52.097Z,41.99
2023-03-16T23:02:54.139Z,41.67
2023-03-16T23:07:57.973Z,41.74
2023-03-16T23:13:00.647Z,41.87
2023-03-16T23:18:02.451Z,41.57
2023-03-16T23:23:04.724Z,41.55
2023-03-16T23:28:07.356Z,41.53
2023-03-16T23:33:13.110Z,41.69
2023-03-16T23:38:15.125Z,41.64
2023-03-16T23:43:17.383Z,41.42
2023-03-16T23:48:21.315Z,41.32
2023-03-16T23:53:24.238Z,41.60
2023-03-16T23:58:26.695Z,41.35
